Main page
METAR-TAF:

METAR-TAF

Airports :

Balmaceda Airport

Balmaceda, Chile

latitude: 45-55S, longitude: 071-41W, elevation: 520 m

Current weather observation

The report was made 3 hours and 32 minutes ago, at 21:00 UTC
Wind 29 kt from the West/Northwest with gusts up to 39 kt
Temperature 12°C
Humidity 50%
Pressure 1009 hPa
Visibility 10 km or more
Scattered clouds at a height of 4000 ft
Broken clouds at a height of 20000 ft

METAR: SCBA 172100Z 30029G39KT 9999 SCT040 BKN200 12/02 Q1009

Time: 21:32 (00:32 UTC)

Forecast

The report was made 1 hour and 59 minutes ago, at 22:33 UTC
Forecast valid from 18 at 00 UTC to 18 at 24 UTC
Wind 20 kt from the Northwest
Visibility 10 km or more
Broken clouds at a height of 3500 ft
Temporary
from 18 at 03 UTC to 18 at 12 UTC
Visibility: 7000 m
light rain showers
Becoming
from 18 at 15 UTC to 18 at 17 UTC
Wind 27 kt from the Northwest with gusts up to 37 kt

TAF: SCBA 172233Z 1800/1824 31020KT 9999 BKN035 TN06/1810Z TX15/1819Z TEMPO 1803/1812 7000 -SHRA BECMG 1815/1817 31027G37KT

Weather observations and forecasts of more than 4000 airports (METAR and TAF reports).

The available stations are represented by yellow and red dots on the map.

Hover mouse over dot to see the name of the station.

Then click to see weather observations and forecasts.

To change the map : click on the green buttons with a black cross to zoom in, on the green button with a dash to zoom out, or on the green arrows for adjacent maps.


METAR-TAF: